createdAt,value
2023-02-25T00:01:57.727Z,4.10
2023-02-25T00:04:30.803Z,4.10
2023-02-25T00:06:58.683Z,4.10
2023-02-25T00:09:27.033Z,4.00
2023-02-25T00:11:54.884Z,4.00
2023-02-25T00:14:24.109Z,4.00
2023-02-25T00:16:55.733Z,4.00
2023-02-25T00:19:24.841Z,4.10
2023-02-25T00:21:52.793Z,4.10
2023-02-25T00:24:20.717Z,4.20
2023-02-25T00:26:48.597Z,4.10
2023-02-25T00:29:16.447Z,4.20
2023-02-25T00:31:46.453Z,4.20
2023-02-25T00:34:14.544Z,4.20
2023-02-25T00:36:42.442Z,4.30
2023-02-25T00:39:11.558Z,4.30
2023-02-25T00:41:39.484Z,4.30
2023-02-25T00:44:08.087Z,4.30
2023-02-25T00:46:36.554Z,4.20
2023-02-25T00:49:05.903Z,4.20
2023-02-25T00:51:34.627Z,4.10
2023-02-25T00:54:02.643Z,4.00
2023-02-25T00:56:30.926Z,4.10
2023-02-25T00:59:00.930Z,4.10
2023-02-25T01:01:33.218Z,4.00
2023-02-25T01:04:02.135Z,4.00
2023-02-25T01:06:35.039Z,4.10
2023-02-25T01:09:05.303Z,4.00
2023-02-25T01:11:37.077Z,4.10
2023-02-25T01:14:09.415Z,4.10
2023-02-25T01:16:38.319Z,3.90
2023-02-25T01:19:09.633Z,3.90
2023-02-25T01:21:42.411Z,3.90
2023-02-25T01:24:17.728Z,3.90
2023-02-25T01:26:47.717Z,3.80
2023-02-25T01:29:18.910Z,3.80
2023-02-25T01:31:47.311Z,3.80
2023-02-25T01:34:19.817Z,3.80
2023-02-25T01:36:53.150Z,3.80
2023-02-25T01:39:26.274Z,3.80
2023-02-25T01:41:59.701Z,3.80
2023-02-25T01:44:33.301Z,3.80
2023-02-25T01:47:02.269Z,3.80
2023-02-25T01:49:38.660Z,3.70
2023-02-25T01:52:14.447Z,3.70
2023-02-25T01:54:46.724Z,3.70
2023-02-25T01:57:19.574Z,3.70
2023-02-25T01:59:51.284Z,3.70
2023-02-25T02:02:23.522Z,3.70
2023-02-25T02:04:55.141Z,3.60
2023-02-25T02:07:24.559Z,3.60
2023-02-25T02:09:56.802Z,3.50
2023-02-25T02:12:28.659Z,3.60
2023-02-25T02:15:01.947Z,3.60
2023-02-25T02:17:39.971Z,3.70
2023-02-25T02:20:16.203Z,3.70
2023-02-25T02:23:26.805Z,3.70
2023-02-25T02:26:27.848Z,3.70
2023-02-25T02:29:38.034Z,3.70
2023-02-25T02:32:17.412Z,3.70
2023-02-25T02:34:58.204Z,3.70
2023-02-25T02:37:41.549Z,3.80
2023-02-25T02:40:28.974Z,3.70
2023-02-25T02:43:16.800Z,3.70
2023-02-25T02:45:51.913Z,3.70
2023-02-25T02:48:30.727Z,3.70
2023-02-25T02:51:03.105Z,3.60
2023-02-25T02:53:37.570Z,3.50
2023-02-25T02:56:10.153Z,3.50
2023-02-25T02:58:43.967Z,3.50
2023-02-25T03:01:17.989Z,3.50
2023-02-25T03:03:59.711Z,3.40
2023-02-25T03:06:35.139Z,3.50
2023-02-25T03:09:10.766Z,3.40
2023-02-25T03:11:39.113Z,3.40
2023-02-25T03:14:08.783Z,3.40
2023-02-25T03:16:42.461Z,3.40
2023-02-25T03:19:17.427Z,3.40
2023-02-25T03:21:54.698Z,3.50
2023-02-25T03:24:28.940Z,3.40
2023-02-25T03:26:57.041Z,3.40
2023-02-25T03:29:28.484Z,3.40
2023-02-25T03:32:05.763Z,3.20
2023-02-25T03:34:41.083Z,3.10
2023-02-25T03:37:18.210Z,3.00
2023-02-25T03:39:53.002Z,2.80
2023-02-25T03:42:28.393Z,2.70
2023-02-25T03:45:03.035Z,2.60
2023-02-25T03:47:35.244Z,2.50
2023-02-25T03:50:13.232Z,3.30
2023-02-25T03:52:43.356Z,2.40
2023-02-25T03:55:30.432Z,2.30
2023-02-25T03:57:58.321Z,2.30
2023-02-25T04:00:31.935Z,2.20
2023-02-25T04:03:01.603Z,2.20
2023-02-25T04:05:30.892Z,2.20
2023-02-25T04:08:00.465Z,2.30
2023-02-25T04:10:33.373Z,2.20
2023-02-25T04:13:01.912Z,2.30
2023-02-25T04:15:30.454Z,2.20
2023-02-25T04:17:58.372Z,2.30
2023-02-25T04:20:29.722Z,2.30
2023-02-25T04:22:59.205Z,2.40
2023-02-25T04:25:27.173Z,2.40
2023-02-25T04:27:55.173Z,2.50
2023-02-25T04:30:23.106Z,2.60
2023-02-25T04:32:51.473Z,2.60
2023-02-25T04:35:19.488Z,2.70
2023-02-25T04:37:47.384Z,2.70
2023-02-25T04:40:21.761Z,2.80
2023-02-25T04:42:50.185Z,2.80
2023-02-25T04:45:20.376Z,2.80
2023-02-25T04:47:48.559Z,2.80
2023-02-25T04:50:16.454Z,2.80
2023-02-25T04:52:44.304Z,2.80
2023-02-25T04:55:12.433Z,2.80
2023-02-25T04:57:42.380Z,2.80
2023-02-25T05:00:19.093Z,2.80
2023-02-25T05:02:48.696Z,2.80
2023-02-25T05:05:18.562Z,2.80
2023-02-25T05:07:46.564Z,2.80
2023-02-25T05:10:15.985Z,2.80
2023-02-25T05:12:45.515Z,2.80
2023-02-25T05:15:13.869Z,2.80
2023-02-25T05:17:41.710Z,2.80
2023-02-25T05:20:13.242Z,2.80
2023-02-25T05:22:42.354Z,2.80
2023-02-25T05:25:12.630Z,2.80
2023-02-25T05:27:40.541Z,2.70
2023-02-25T05:30:13.078Z,2.70
2023-02-25T05:32:41.619Z,2.70
2023-02-25T05:35:12.053Z,2.70
2023-02-25T05:37:40.176Z,2.70
2023-02-25T05:40:10.365Z,2.70
2023-02-25T05:42:38.454Z,2.70
2023-02-25T05:45:09.714Z,2.70
2023-02-25T05:47:37.737Z,2.70
2023-02-25T05:50:06.639Z,2.70
2023-02-25T05:52:34.563Z,2.80
2023-02-25T05:55:03.000Z,2.80
2023-02-25T05:57:31.174Z,2.80
2023-02-25T05:59:59.340Z,2.80
2023-02-25T06:02:29.006Z,2.80
2023-02-25T06:04:57.514Z,2.80
2023-02-25T06:07:25.561Z,2.80
2023-02-25T06:09:55.016Z,2.80
2023-02-25T06:12:22.888Z,2.80
2023-02-25T06:14:50.748Z,2.80
2023-02-25T06:17:18.681Z,2.70
2023-02-25T06:19:48.732Z,2.70
2023-02-25T06:22:16.609Z,2.70
2023-02-25T06:24:44.624Z,2.70
2023-02-25T06:27:13.706Z,2.70
2023-02-25T06:29:42.433Z,2.80
2023-02-25T06:32:12.408Z,2.80
2023-02-25T06:34:41.199Z,2.80
2023-02-25T06:37:10.505Z,2.80
2023-02-25T06:39:38.465Z,2.80
2023-02-25T06:42:06.440Z,2.80
2023-02-25T06:44:34.273Z,2.80
2023-02-25T06:47:02.122Z,2.70
2023-02-25T06:49:31.150Z,2.70
2023-02-25T06:51:59.133Z,2.80
2023-02-25T06:54:28.837Z,2.70
2023-02-25T06:56:56.778Z,2.70
2023-02-25T06:59:24.702Z,2.70
2023-02-25T07:01:52.726Z,2.70
2023-02-25T07:04:21.121Z,2.70
2023-02-25T07:06:49.170Z,2.70
2023-02-25T07:09:17.030Z,2.60
2023-02-25T07:11:46.434Z,2.70
2023-02-25T07:14:16.286Z,2.70
2023-02-25T07:16:44.160Z,2.70
2023-02-25T07:19:12.017Z,2.70
2023-02-25T07:21:40.413Z,2.60
2023-02-25T07:24:08.582Z,2.60
2023-02-25T07:26:38.202Z,2.60
2023-02-25T07:29:08.022Z,2.60
2023-02-25T07:31:36.080Z,2.50
2023-02-25T07:34:04.424Z,2.60
2023-02-25T07:36:35.230Z,2.50
2023-02-25T07:39:04.483Z,2.50
2023-02-25T07:41:32.380Z,2.40
2023-02-25T07:44:04.513Z,2.40
2023-02-25T07:46:34.664Z,2.30
2023-02-25T07:49:02.933Z,2.20
2023-02-25T07:51:31.191Z,2.20
2023-02-25T07:54:00.493Z,2.10
2023-02-25T07:56:31.480Z,2.00
2023-02-25T07:58:59.497Z,2.00
2023-02-25T08:01:31.577Z,2.00
2023-02-25T08:04:05.041Z,2.00
2023-02-25T08:06:36.056Z,2.00
2023-02-25T08:09:05.692Z,2.10
2023-02-25T08:11:34.296Z,2.10
2023-02-25T08:14:03.405Z,2.10
2023-02-25T08:16:32.292Z,2.10
2023-02-25T08:19:01.646Z,2.10
2023-02-25T08:21:30.786Z,2.20
2023-02-25T08:23:58.855Z,2.20
2023-02-25T08:26:27.596Z,2.30
2023-02-25T08:28:57.483Z,2.40
2023-02-25T08:31:25.836Z,2.60
2023-02-25T08:33:54.953Z,3.80
2023-02-25T08:36:26.719Z,2.80
2023-02-25T08:38:57.097Z,2.80
2023-02-25T08:41:27.716Z,2.80
2023-02-25T08:43:57.785Z,2.80
2023-02-25T08:46:30.966Z,2.80
2023-02-25T08:48:59.883Z,2.70
2023-02-25T08:51:33.888Z,2.70
2023-02-25T08:54:04.340Z,2.70
2023-02-25T08:56:32.990Z,2.70
2023-02-25T08:59:00.980Z,2.80
2023-02-25T09:01:44.324Z,2.80
2023-02-25T09:04:14.953Z,2.80
2023-02-25T09:06:47.188Z,2.70
2023-02-25T09:09:15.492Z,2.70
2023-02-25T09:11:44.295Z,2.70
2023-02-25T09:14:13.329Z,2.70
2023-02-25T09:16:41.623Z,2.70
2023-02-25T09:19:12.743Z,2.80
2023-02-25T09:21:41.240Z,2.80
2023-02-25T09:24:10.905Z,2.90
2023-02-25T09:26:39.165Z,3.00
2023-02-25T09:29:08.714Z,3.00
2023-02-25T09:31:39.598Z,3.00
2023-02-25T09:34:10.462Z,3.10
2023-02-25T09:36:38.703Z,3.10
2023-02-25T09:39:10.705Z,3.10
2023-02-25T09:41:55.615Z,3.20
2023-02-25T09:44:29.385Z,3.30
2023-02-25T09:47:04.479Z,3.30
2023-02-25T09:49:39.670Z,3.30
2023-02-25T09:52:18.535Z,3.30
2023-02-25T09:54:55.596Z,3.30
2023-02-25T09:57:24.255Z,3.40
2023-02-25T09:59:54.480Z,3.40
2023-02-25T10:02:33.953Z,3.40
2023-02-25T10:05:23.122Z,3.30
2023-02-25T10:08:11.562Z,3.30
2023-02-25T10:10:50.369Z,3.40
2023-02-25T10:13:33.072Z,3.50
2023-02-25T10:16:17.615Z,3.60
2023-02-25T10:19:03.665Z,3.70
2023-02-25T10:21:54.183Z,3.70
2023-02-25T10:24:34.678Z,3.60
2023-02-25T10:27:18.705Z,3.60
2023-02-25T10:29:51.269Z,3.80
2023-02-25T10:32:23.759Z,3.80
2023-02-25T10:34:54.312Z,3.80
2023-02-25T10:37:29.737Z,3.80
2023-02-25T10:40:02.951Z,3.70
2023-02-25T10:42:34.785Z,3.70
2023-02-25T10:45:10.109Z,3.70
2023-02-25T10:47:41.640Z,3.70
2023-02-25T10:50:27.609Z,3.60
2023-02-25T10:53:03.974Z,3.50
2023-02-25T10:55:51.552Z,3.40
2023-02-25T10:58:38.165Z,3.30
2023-02-25T11:01:15.162Z,3.20
2023-02-25T11:03:55.154Z,3.10
2023-02-25T11:06:30.151Z,3.00
2023-02-25T11:09:00.905Z,2.90
2023-02-25T11:11:32.430Z,2.90
2023-02-25T11:14:06.574Z,2.80
2023-02-25T11:16:38.107Z,2.80
2023-02-25T11:19:16.964Z,2.80
2023-02-25T11:21:46.620Z,2.80
2023-02-25T11:24:20.092Z,2.90
2023-02-25T11:26:52.359Z,2.90
2023-02-25T11:29:31.677Z,2.80
2023-02-25T11:32:08.996Z,2.90
2023-02-25T11:34:49.729Z,2.90
2023-02-25T11:37:36.528Z,2.90
2023-02-25T11:40:24.612Z,2.80
2023-02-25T11:43:04.080Z,2.80
2023-02-25T11:45:37.091Z,2.70
2023-02-25T11:48:19.050Z,2.80
2023-02-25T11:50:55.035Z,2.80
2023-02-25T11:53:47.001Z,2.90
2023-02-25T11:56:29.204Z,3.10
2023-02-25T11:59:17.142Z,3.30
2023-02-25T12:02:07.646Z,3.40
2023-02-25T12:05:12.168Z,3.60
2023-02-25T12:08:19.271Z,3.70
2023-02-25T12:11:37.373Z,3.90
2023-02-25T12:14:40.132Z,4.10
2023-02-25T12:17:48.799Z,4.20
2023-02-25T12:21:09.547Z,4.10
2023-02-25T12:24:28.215Z,4.10
2023-02-25T12:27:57.117Z,4.10
2023-02-25T12:31:16.402Z,4.10
2023-02-25T12:34:29.565Z,4.40
2023-02-25T12:37:16.801Z,4.50
2023-02-25T12:39:58.554Z,4.40
2023-02-25T12:42:46.185Z,4.20
2023-02-25T12:45:33.703Z,4.00
2023-02-25T12:48:33.950Z,3.80
2023-02-25T12:51:44.909Z,3.80
2023-02-25T12:54:38.846Z,3.70
2023-02-25T12:57:33.015Z,3.50
2023-02-25T13:00:54.025Z,3.30
2023-02-25T13:03:54.013Z,3.10
2023-02-25T13:06:56.039Z,3.00
2023-02-25T13:10:07.698Z,2.60
2023-02-25T13:13:01.682Z,2.10
2023-02-25T13:15:45.319Z,1.90
2023-02-25T13:18:28.650Z,1.60
2023-02-25T13:21:23.821Z,1.60
2023-02-25T13:24:34.670Z,1.70
2023-02-25T13:28:00.777Z,1.80
2023-02-25T13:30:47.466Z,1.90
2023-02-25T13:34:01.249Z,2.10
2023-02-25T13:36:58.740Z,2.10
2023-02-25T13:40:06.205Z,2.00
2023-02-25T13:43:01.545Z,2.00
2023-02-25T13:45:55.536Z,2.00
2023-02-25T13:48:56.623Z,2.00
2023-02-25T13:52:07.230Z,2.10
2023-02-25T13:55:08.736Z,2.00
2023-02-25T13:58:06.572Z,2.00
2023-02-25T14:01:00.312Z,2.10
2023-02-25T14:04:20.803Z,2.10
2023-02-25T14:07:22.907Z,2.20
2023-02-25T14:10:13.702Z,2.30
2023-02-25T14:13:17.082Z,2.40
2023-02-25T14:16:02.001Z,2.50
2023-02-25T14:18:53.532Z,2.60
2023-02-25T14:21:54.072Z,2.60
2023-02-25T14:24:34.685Z,2.60
2023-02-25T14:27:16.611Z,2.60
2023-02-25T14:30:13.150Z,2.60
2023-02-25T14:32:58.828Z,2.70
2023-02-25T14:35:53.412Z,2.70
2023-02-25T14:38:36.507Z,2.80
2023-02-25T14:41:26.907Z,3.00
2023-02-25T14:44:04.373Z,4.00
2023-02-25T14:46:42.888Z,3.00
2023-02-25T14:49:21.318Z,4.20
2023-02-25T14:52:23.282Z,2.90
2023-02-25T14:55:25.621Z,2.90
2023-02-25T14:58:37.271Z,3.00
2023-02-25T15:01:38.644Z,2.90
2023-02-25T15:04:44.151Z,2.90
2023-02-25T15:07:30.999Z,2.70
2023-02-25T15:10:32.058Z,2.60
2023-02-25T15:13:34.553Z,2.60
2023-02-25T15:16:42.901Z,2.50
2023-02-25T15:19:41.171Z,2.50
2023-02-25T15:22:25.934Z,2.40
2023-02-25T15:24:55.862Z,2.40
2023-02-25T15:27:49.823Z,2.30
2023-02-25T15:30:20.907Z,2.20
2023-02-25T15:33:14.386Z,2.20
2023-02-25T15:35:59.710Z,2.20
2023-02-25T15:38:44.587Z,2.20
2023-02-25T15:41:42.880Z,2.30
2023-02-25T15:44:42.871Z,2.40
2023-02-25T15:47:30.384Z,2.50
2023-02-25T15:49:59.971Z,2.60
2023-02-25T15:52:58.283Z,2.60
2023-02-25T15:55:39.944Z,2.70
2023-02-25T15:58:44.601Z,2.70
2023-02-25T16:01:42.235Z,2.80
2023-02-25T16:04:45.439Z,2.70
2023-02-25T16:07:18.984Z,2.50
2023-02-25T16:09:56.090Z,2.50
2023-02-25T16:12:25.036Z,2.50
2023-02-25T16:14:56.659Z,2.40
2023-02-25T16:17:32.559Z,2.40
2023-02-25T16:20:11.886Z,2.30
2023-02-25T16:22:46.555Z,2.20
2023-02-25T16:25:22.708Z,2.10
2023-02-25T16:28:02.207Z,2.00
2023-02-25T16:30:41.408Z,2.00
2023-02-25T16:33:22.292Z,2.00
2023-02-25T16:36:07.988Z,1.90
2023-02-25T16:38:47.704Z,2.60
2023-02-25T16:41:17.128Z,1.80
2023-02-25T16:43:46.624Z,1.80
2023-02-25T16:46:20.583Z,1.70
2023-02-25T16:48:55.935Z,1.60
2023-02-25T16:51:31.894Z,1.60
2023-02-25T16:54:06.620Z,1.60
2023-02-25T16:56:37.501Z,1.60
2023-02-25T16:59:16.503Z,1.60
2023-02-25T17:01:50.286Z,1.70
2023-02-25T17:04:21.892Z,1.70
2023-02-25T17:07:11.718Z,1.70
2023-02-25T17:09:46.891Z,1.70
2023-02-25T17:12:25.579Z,1.70
2023-02-25T17:14:54.557Z,1.80
2023-02-25T17:17:29.102Z,1.80
2023-02-25T17:19:59.213Z,1.80
2023-02-25T17:22:28.266Z,1.80
2023-02-25T17:24:59.092Z,1.80
2023-02-25T17:27:29.334Z,1.70
2023-02-25T17:29:57.448Z,1.70
2023-02-25T17:32:28.565Z,1.60
2023-02-25T17:35:03.381Z,1.60
2023-02-25T17:37:32.605Z,1.60
2023-02-25T17:40:04.435Z,1.60
2023-02-25T17:42:36.848Z,1.60
2023-02-25T17:45:08.509Z,1.60
2023-02-25T17:47:38.112Z,1.50
2023-02-25T17:50:33.475Z,1.40
2023-02-25T17:53:01.832Z,1.40
2023-02-25T17:55:35.979Z,1.40
2023-02-25T17:58:05.335Z,1.30
2023-02-25T18:00:36.744Z,1.20
2023-02-25T18:03:20.987Z,1.20
2023-02-25T18:05:54.479Z,1.20
2023-02-25T18:08:24.618Z,1.20
2023-02-25T18:10:56.726Z,1.20
2023-02-25T18:13:36.044Z,1.20
2023-02-25T18:16:39.731Z,1.20
2023-02-25T18:19:26.164Z,1.20
2023-02-25T18:21:55.096Z,1.20
2023-02-25T18:24:32.931Z,1.20
2023-02-25T18:27:21.988Z,1.20
2023-02-25T18:29:51.599Z,1.10
2023-02-25T18:32:19.533Z,1.20
2023-02-25T18:34:47.422Z,1.20
2023-02-25T18:37:18.165Z,1.20
2023-02-25T18:39:48.386Z,1.20
2023-02-25T18:42:18.767Z,1.20
2023-02-25T18:44:48.265Z,1.10
2023-02-25T18:47:18.038Z,1.10
2023-02-25T18:49:46.396Z,1.00
2023-02-25T18:52:22.326Z,0.90
2023-02-25T18:54:50.790Z,0.90
2023-02-25T18:57:24.159Z,0.90
2023-02-25T18:59:52.960Z,0.80
2023-02-25T19:02:32.589Z,0.70
2023-02-25T19:05:02.778Z,0.70
2023-02-25T19:07:35.222Z,0.60
2023-02-25T19:10:04.581Z,0.60
2023-02-25T19:12:35.697Z,0.60
2023-02-25T19:15:08.645Z,0.60
2023-02-25T19:17:37.834Z,0.50
2023-02-25T19:20:07.270Z,0.50
2023-02-25T19:22:35.825Z,0.50
2023-02-25T19:25:03.744Z,0.50
2023-02-25T19:27:32.481Z,0.50
2023-02-25T19:30:02.602Z,0.50
2023-02-25T19:32:30.535Z,0.50
2023-02-25T19:34:59.777Z,0.50
2023-02-25T19:37:32.046Z,0.50
2023-02-25T19:39:59.944Z,0.60
2023-02-25T19:42:27.805Z,0.60
2023-02-25T19:44:55.656Z,0.60
2023-02-25T19:47:23.541Z,0.70
2023-02-25T19:49:51.737Z,0.60
2023-02-25T19:52:20.919Z,0.70
2023-02-25T19:54:48.755Z,0.70
2023-02-25T19:57:16.590Z,0.60
2023-02-25T19:59:44.459Z,0.70
2023-02-25T20:02:14.142Z,0.60
2023-02-25T20:04:42.618Z,0.60
2023-02-25T20:07:11.834Z,0.60
2023-02-25T20:09:41.277Z,0.60
2023-02-25T20:12:10.218Z,0.70
2023-02-25T20:14:38.411Z,0.70
2023-02-25T20:17:06.272Z,0.70
2023-02-25T20:19:34.444Z,0.80
2023-02-25T20:22:05.748Z,0.70
2023-02-25T20:24:34.825Z,0.70
2023-02-25T20:27:04.060Z,0.80
2023-02-25T20:29:32.023Z,0.80
2023-02-25T20:32:00.106Z,0.80
2023-02-25T20:34:28.502Z,0.80
2023-02-25T20:37:00.953Z,0.80
2023-02-25T20:39:51.376Z,0.80
2023-02-25T20:42:24.753Z,0.80
2023-02-25T20:44:54.199Z,0.80
2023-02-25T20:47:26.365Z,0.70
2023-02-25T20:49:56.360Z,0.70
2023-02-25T20:52:26.718Z,0.70
2023-02-25T20:54:55.233Z,0.60
2023-02-25T20:57:27.586Z,0.60
2023-02-25T20:59:55.946Z,0.60
2023-02-25T21:02:24.422Z,0.60
2023-02-25T21:04:52.321Z,0.60
2023-02-25T21:07:23.031Z,0.60
2023-02-25T21:09:50.904Z,0.50
2023-02-25T21:12:19.060Z,0.40
2023-02-25T21:14:48.314Z,0.40
2023-02-25T21:17:16.749Z,0.30
2023-02-25T21:19:44.620Z,0.30
2023-02-25T21:22:12.468Z,0.30
2023-02-25T21:24:40.335Z,0.30
2023-02-25T21:27:08.187Z,0.20
2023-02-25T21:29:36.141Z,0.30
2023-02-25T21:32:05.609Z,0.30
2023-02-25T21:34:33.499Z,0.30
2023-02-25T21:37:01.395Z,0.40
2023-02-25T21:39:29.332Z,0.40
2023-02-25T21:41:57.718Z,0.40
2023-02-25T21:44:25.876Z,0.40
2023-02-25T21:46:53.802Z,0.50
2023-02-25T21:49:23.434Z,0.50
2023-02-25T21:51:51.600Z,0.50
2023-02-25T21:54:19.512Z,0.50
2023-02-25T21:56:47.392Z,0.50
2023-02-25T21:59:17.028Z,0.50
2023-02-25T22:01:45.776Z,0.40
2023-02-25T22:04:14.079Z,0.50
2023-02-25T22:06:45.021Z,0.50
2023-02-25T22:09:12.995Z,0.50
2023-02-25T22:11:41.019Z,0.60
2023-02-25T22:14:10.623Z,0.60
2023-02-25T22:16:39.939Z,0.50
2023-02-25T22:19:08.006Z,0.60
2023-02-25T22:21:36.961Z,0.60
2023-02-25T22:24:07.232Z,0.60
2023-02-25T22:26:37.306Z,0.60
2023-02-25T22:29:09.898Z,0.60
2023-02-25T22:31:38.516Z,0.60
2023-02-25T22:34:06.965Z,0.60
2023-02-25T22:36:35.369Z,0.60
2023-02-25T22:39:09.582Z,0.60
2023-02-25T22:41:40.353Z,0.60
2023-02-25T22:44:08.214Z,0.60
2023-02-25T22:46:39.005Z,0.50
2023-02-25T22:49:08.460Z,0.60
2023-02-25T22:51:40.429Z,0.60
2023-02-25T22:54:10.336Z,0.50
2023-02-25T22:56:39.029Z,0.50
2023-02-25T22:59:07.643Z,0.60
2023-02-25T23:01:36.569Z,0.60
2023-02-25T23:04:04.936Z,0.60
2023-02-25T23:06:43.344Z,0.60
2023-02-25T23:09:14.140Z,0.70
2023-02-25T23:11:45.190Z,0.60
2023-02-25T23:14:14.149Z,0.60
2023-02-25T23:16:45.380Z,0.60
2023-02-25T23:19:16.433Z,0.60
2023-02-25T23:21:44.454Z,0.60
2023-02-25T23:24:16.357Z,0.60
2023-02-25T23:26:45.795Z,0.60
2023-02-25T23:29:14.965Z,0.60
2023-02-25T23:31:46.855Z,0.60
2023-02-25T23:34:20.377Z,0.60
2023-02-25T23:36:48.276Z,0.60
2023-02-25T23:39:18.290Z,0.60
2023-02-25T23:44:15.580Z,0.50
2023-02-25T23:46:44.948Z,0.60
2023-02-25T23:49:17.043Z,0.60
2023-02-25T23:51:47.507Z,0.50
2023-02-25T23:54:23.752Z,0.50
2023-02-25T23:56:52.011Z,0.60
2023-02-25T23:59:23.440Z,0.60
